Sirius — V7KI6 — position and weather

sailwx.info

Track history (hours):
 
Tides and Currents Weather Stations Pressure Air Temp Water Temp Dewpoint Dewpoint Depression Visibility Wind Speed Wind Dir Waves Ship Positions

Sirius

Last reported at 2014-Dec-16 15:13 UTC. Time now 2014-Dec-22 06:22 UTC.
Position N 34°30' E 033°32'.

Length 178.1 m; beam 28.2 m; draft 11.5 m.

Type: Cargo ship. MMSI: 538090245.

Date/timePositionNaut miles runAvg speedWind from/ knotsBaromVisibWave heightAir tempDewpointWater temp
2014-Dec-16 15:13N 34°30' E 033°32'1116.8
2014-Dec-16 14:33N 34°34' E 033°19'1515.1
2014-Dec-16 13:33N 34°39' E 033°02'1 1.2
2014-Dec-16 12:31N 34°39' E 033°01'0 0.0
2014-Dec-16 11:31N 34°39' E 033°01'0 0.0
2014-Dec-16 10:31N 34°39' E 033°01'0 0.0
2014-Dec-16 09:31N 34°39' E 033°01'0 0.0
2014-Dec-16 08:31N 34°39' E 033°01'0 0.0
2014-Dec-16 07:31N 34°39' E 033°01'0 0.0
2014-Dec-16 06:31N 34°39' E 033°01'0 0.1
2014-Dec-16 05:33N 34°39' E 033°01'3 3.0
2014-Dec-16 04:33N 34°39' E 033°05'0 0.4
2014-Dec-16 03:32N 34°39' E 033°05'8 8.1
2014-Dec-16 02:33N 34°39' E 033°15'  
2014-Dec-11 10:29N 34°42' E 025°55'3516.7
2014-Dec-11 08:24N 34°38' E 025°13'3616.9
2014-Dec-11 06:16N 34°38' E 024°29'1416.7
2014-Dec-11 05:25N 34°38' E 024°12'  
Track history (hours):
 
Tides and Currents Weather Stations Pressure Air Temp Water Temp Dewpoint Dewpoint Depression Visibility Wind Speed Wind Dir Waves Ship Positions

Sirius

Last reported at 2014-Dec-16 15:13 UTC. Time now 2014-Dec-22 06:22 UTC.
Position N 34°30' E 033°32'.

Length 178.1 m; beam 28.2 m; draft 11.5 m.

Type: Cargo ship. MMSI: 538090245.

Date/timePositionNaut miles runAvg speedWind from/ knotsBaromVisibWave heightAir tempDewpointWater temp
2014-Dec-16 15:13N 34°30' E 033°32'1116.8
2014-Dec-16 14:33N 34°34' E 033°19'1515.1
2014-Dec-16 13:33N 34°39' E 033°02'1 1.2
2014-Dec-16 12:31N 34°39' E 033°01'0 0.0
2014-Dec-16 11:31N 34°39' E 033°01'0 0.0
2014-Dec-16 10:31N 34°39' E 033°01'0 0.0
2014-Dec-16 09:31N 34°39' E 033°01'0 0.0
2014-Dec-16 08:31N 34°39' E 033°01'0 0.0
2014-Dec-16 07:31N 34°39' E 033°01'0 0.0
2014-Dec-16 06:31N 34°39' E 033°01'0 0.1
2014-Dec-16 05:33N 34°39' E 033°01'3 3.0
2014-Dec-16 04:33N 34°39' E 033°05'0 0.4
2014-Dec-16 03:32N 34°39' E 033°05'8 8.1
2014-Dec-16 02:33N 34°39' E 033°15'  
2014-Dec-11 10:29N 34°42' E 025°55'3516.7
2014-Dec-11 08:24N 34°38' E 025°13'3616.9
2014-Dec-11 06:16N 34°38' E 024°29'1416.7
2014-Dec-11 05:25N 34°38' E 024°12'  

Dump ship's entire track history